createdAt,value
2019-02-24T00:00:02.354Z,61.66
2019-02-24T00:01:02.356Z,60.91
2019-02-24T00:02:02.366Z,60.49
2019-02-24T00:03:02.353Z,60.80
2019-02-24T00:04:02.374Z,60.60
2019-02-24T00:05:02.354Z,60.36
2019-02-24T00:06:02.353Z,60.25
2019-02-24T00:07:02.353Z,60.57
2019-02-24T00:08:01.871Z,60.36
2019-02-24T00:09:01.912Z,60.70
2019-02-24T00:10:01.856Z,60.60
2019-02-24T00:11:01.858Z,60.70
2019-02-24T00:12:01.856Z,59.74
2019-02-24T00:13:01.854Z,59.77
2019-02-24T00:14:01.884Z,60.15
2019-02-24T00:15:00.335Z,60.05
2019-02-24T00:16:01.857Z,60.46
2019-02-24T00:17:01.854Z,60.60
2019-02-24T00:18:01.852Z,60.60
2019-02-24T00:19:03.752Z,60.77
2019-02-24T00:20:01.875Z,60.80
2019-02-24T00:21:01.855Z,60.70
2019-02-24T00:22:01.853Z,60.28
2019-02-24T00:23:01.854Z,60.70
2019-02-24T00:24:01.853Z,60.91
2019-02-24T00:25:01.867Z,59.87
2019-02-24T00:26:01.878Z,60.36
2019-02-24T00:27:01.857Z,60.46
2019-02-24T00:28:07.156Z,60.36
2019-02-24T00:29:02.868Z,60.46
2019-02-24T00:30:01.854Z,60.60
2019-02-24T00:31:01.853Z,60.36
2019-02-24T00:32:01.863Z,60.39
2019-02-24T00:33:01.868Z,60.28
2019-02-24T00:34:01.854Z,60.39
2019-02-24T00:35:01.856Z,60.18
2019-02-24T00:36:01.851Z,60.18
2019-02-24T00:37:01.851Z,60.08
2019-02-24T00:38:01.882Z,60.49
2019-02-24T00:39:01.855Z,60.80
2019-02-24T00:40:01.866Z,60.91
2019-02-24T00:41:01.851Z,61.32
2019-02-24T00:42:01.911Z,61.66
2019-02-24T00:43:01.861Z,61.66
2019-02-24T00:44:01.867Z,61.97
2019-02-24T00:45:01.850Z,61.87
2019-02-24T00:46:01.853Z,62.07
2019-02-24T00:47:01.854Z,61.79
2019-02-24T00:48:01.864Z,61.58
2019-02-24T00:49:01.850Z,62.10
2019-02-24T00:49:59.930Z,63.14
2019-02-24T00:51:01.852Z,62.93
2019-02-24T00:52:01.863Z,62.86
2019-02-24T00:53:01.866Z,63.69
2019-02-24T00:54:01.869Z,63.82
2019-02-24T00:55:01.863Z,64.42
2019-02-24T00:55:59.868Z,64.55
2019-02-24T00:57:01.356Z,65.07
2019-02-24T00:58:01.366Z,64.55
2019-02-24T00:59:01.369Z,65.17
2019-02-24T01:00:01.351Z,65.20
2019-02-24T01:01:01.352Z,65.00
2019-02-24T01:02:01.362Z,65.00
2019-02-24T01:03:02.353Z,64.89
2019-02-24T01:04:01.368Z,65.20
2019-02-24T01:05:01.361Z,65.72
2019-02-24T01:06:01.349Z,65.62
2019-02-24T01:07:01.355Z,66.17
2019-02-24T01:08:01.369Z,65.52
2019-02-24T01:09:01.366Z,66.35
2019-02-24T01:10:01.358Z,66.24
2019-02-24T01:11:01.352Z,66.24
2019-02-24T01:12:01.351Z,65.72
2019-02-24T01:13:01.349Z,65.93
2019-02-24T01:14:01.372Z,65.31
2019-02-24T01:15:01.351Z,65.00
2019-02-24T01:16:01.351Z,64.89
2019-02-24T01:17:01.351Z,65.00
2019-02-24T01:18:01.348Z,64.79
2019-02-24T01:19:01.368Z,65.20
2019-02-24T01:20:01.360Z,65.00
2019-02-24T01:21:01.348Z,65.00
2019-02-24T01:22:01.353Z,65.31
2019-02-24T01:23:01.351Z,64.79
2019-02-24T01:24:01.358Z,64.69
2019-02-24T01:24:59.558Z,64.89
2019-02-24T01:26:01.376Z,64.97
2019-02-24T01:27:01.352Z,65.00
2019-02-24T01:28:01.350Z,64.89
2019-02-24T01:29:01.361Z,65.10
2019-02-24T01:30:01.348Z,64.58
2019-02-24T01:30:59.522Z,64.03
2019-02-24T01:32:01.368Z,64.45
2019-02-24T01:33:01.349Z,63.82
2019-02-24T01:34:01.362Z,63.62
2019-02-24T01:35:01.350Z,63.09
2019-02-24T01:36:01.397Z,62.68
2019-02-24T01:37:01.357Z,62.99
2019-02-24T01:38:01.362Z,63.07
2019-02-24T01:39:01.349Z,63.09
2019-02-24T01:40:01.355Z,62.99
2019-02-24T01:41:01.359Z,62.99
2019-02-24T01:42:01.357Z,63.09
2019-02-24T01:43:01.349Z,63.09
2019-02-24T01:44:00.386Z,63.20
2019-02-24T01:45:00.851Z,63.20
2019-02-24T01:46:00.863Z,63.62
2019-02-24T01:47:00.847Z,62.68
2019-02-24T01:48:00.848Z,63.41
2019-02-24T01:49:00.847Z,63.93
2019-02-24T01:50:00.859Z,63.82
2019-02-24T01:51:00.862Z,63.82
2019-02-24T01:52:00.848Z,63.41
2019-02-24T01:53:00.846Z,63.31
2019-02-24T01:54:00.858Z,63.75
2019-02-24T01:55:00.845Z,63.51
2019-02-24T01:56:00.875Z,63.82
2019-02-24T01:57:00.848Z,63.82
2019-02-24T01:58:00.847Z,63.75
2019-02-24T01:59:00.845Z,63.82
2019-02-24T01:59:59.929Z,63.75
2019-02-24T02:01:00.846Z,63.64
2019-02-24T02:02:00.203Z,63.82
2019-02-24T02:03:00.868Z,63.96
2019-02-24T02:04:00.849Z,64.24
2019-02-24T02:05:00.847Z,63.82
2019-02-24T02:05:59.129Z,65.72
2019-02-24T02:07:00.860Z,65.20
2019-02-24T02:08:00.857Z,65.52
2019-02-24T02:09:00.877Z,65.75
2019-02-24T02:10:00.856Z,66.06
2019-02-24T02:11:00.846Z,66.62
2019-02-24T02:11:59.102Z,66.83
2019-02-24T02:13:00.857Z,67.38
2019-02-24T02:14:00.846Z,68.21
2019-02-24T02:15:00.938Z,68.32
2019-02-24T02:16:00.846Z,68.52
2019-02-24T02:17:00.861Z,68.76
2019-02-24T02:18:00.844Z,69.91
2019-02-24T02:19:01.459Z,69.84
2019-02-24T02:20:00.878Z,69.81
2019-02-24T02:21:00.849Z,70.25
2019-02-24T02:22:00.910Z,69.94
2019-02-24T02:23:00.848Z,69.59
2019-02-24T02:24:01.863Z,69.91
2019-02-24T02:25:00.845Z,69.42
2019-02-24T02:26:00.846Z,69.91
2019-02-24T02:27:00.873Z,70.67
2019-02-24T02:28:00.842Z,70.56
2019-02-24T02:29:00.847Z,70.98
2019-02-24T02:30:00.850Z,71.61
2019-02-24T02:31:00.863Z,72.44
2019-02-24T02:32:00.400Z,71.85
2019-02-24T02:33:00.354Z,72.27
2019-02-24T02:34:00.366Z,73.10
2019-02-24T02:35:00.346Z,73.66
2019-02-24T02:36:00.344Z,73.66
2019-02-24T02:37:00.356Z,73.66
2019-02-24T02:38:00.354Z,74.49
2019-02-24T02:39:00.370Z,75.15
2019-02-24T02:40:00.344Z,75.39
2019-02-24T02:40:58.876Z,75.57
2019-02-24T02:42:00.363Z,75.50
2019-02-24T02:43:00.343Z,76.12
2019-02-24T02:44:00.344Z,75.92
2019-02-24T02:45:00.346Z,76.12
2019-02-24T02:46:00.360Z,76.12
2019-02-24T02:47:00.360Z,76.44
2019-02-24T02:48:00.343Z,76.44
2019-02-24T02:49:00.341Z,76.79
2019-02-24T02:49:59.661Z,76.47
2019-02-24T02:51:00.341Z,76.65
2019-02-24T02:52:00.438Z,76.23
2019-02-24T02:53:00.342Z,76.57
2019-02-24T02:54:00.343Z,76.75
2019-02-24T02:55:00.343Z,76.54
2019-02-24T02:56:00.340Z,76.57
2019-02-24T02:57:00.356Z,76.23
2019-02-24T02:58:00.365Z,76.02
2019-02-24T02:59:00.341Z,76.44
2019-02-24T03:00:00.343Z,77.06
2019-02-24T03:01:00.340Z,77.17
2019-02-24T03:02:00.354Z,77.48
2019-02-24T03:03:00.340Z,77.51
2019-02-24T03:04:00.375Z,78.46
2019-02-24T03:05:00.342Z,78.67
2019-02-24T03:06:00.342Z,79.19
2019-02-24T03:07:00.361Z,79.44
2019-02-24T03:08:00.342Z,79.33
2019-02-24T03:09:00.345Z,79.44
2019-02-24T03:10:02.718Z,80.16
2019-02-24T03:11:00.341Z,79.99
2019-02-24T03:12:00.355Z,79.99
2019-02-24T03:13:00.341Z,79.89
2019-02-24T03:14:00.341Z,80.10
2019-02-24T03:15:00.340Z,80.24
2019-02-24T03:16:00.172Z,80.45
2019-02-24T03:17:00.349Z,80.76
2019-02-24T03:18:00.341Z,80.97
2019-02-24T03:19:00.346Z,81.77
2019-02-24T03:20:00.355Z,81.56
2019-02-24T03:21:00.340Z,81.70
2019-02-24T03:21:58.389Z,81.92
2019-02-24T03:22:59.838Z,82.43
2019-02-24T03:23:59.841Z,82.02
2019-02-24T03:24:59.838Z,82.23
2019-02-24T03:25:59.857Z,82.23
2019-02-24T03:26:59.850Z,83.00
2019-02-24T03:27:59.876Z,82.16
2019-02-24T03:29:04.072Z,82.89
2019-02-24T03:29:59.838Z,82.89
2019-02-24T03:30:59.900Z,82.79
2019-02-24T03:31:59.853Z,82.68
2019-02-24T03:32:59.878Z,82.68
2019-02-24T03:33:59.853Z,82.47
2019-02-24T03:34:59.837Z,82.68
2019-02-24T03:35:59.841Z,82.89
2019-02-24T03:36:59.848Z,82.89
2019-02-24T03:37:59.839Z,82.89
2019-02-24T03:38:59.835Z,83.21
2019-02-24T03:39:59.852Z,83.42
2019-02-24T03:40:59.849Z,83.52
2019-02-24T03:41:59.846Z,83.10
2019-02-24T03:42:59.839Z,83.21
2019-02-24T03:43:59.851Z,82.89
2019-02-24T03:44:59.104Z,83.52
2019-02-24T03:45:59.859Z,83.83
2019-02-24T03:46:59.855Z,83.62
2019-02-24T03:47:59.837Z,83.83
2019-02-24T03:48:59.837Z,83.73
2019-02-24T03:49:59.834Z,83.52
2019-02-24T03:50:59.837Z,83.31
2019-02-24T03:51:59.863Z,83.42
2019-02-24T03:52:59.836Z,83.03
2019-02-24T03:53:59.834Z,83.03
2019-02-24T03:54:59.837Z,83.31
2019-02-24T03:55:59.836Z,83.10
2019-02-24T03:56:58.014Z,82.82
2019-02-24T03:57:59.847Z,82.62
2019-02-24T03:58:59.835Z,82.51
2019-02-24T03:59:59.837Z,83.00
2019-02-24T04:00:59.833Z,83.10
2019-02-24T04:01:59.918Z,83.03
2019-02-24T04:02:57.923Z,83.66
2019-02-24T04:03:59.853Z,83.77
2019-02-24T04:04:59.845Z,84.08
2019-02-24T04:05:59.839Z,84.29
2019-02-24T04:06:59.836Z,84.19
2019-02-24T04:07:59.854Z,84.39
2019-02-24T04:08:59.838Z,84.39
2019-02-24T04:09:59.860Z,84.39
2019-02-24T04:10:59.349Z,84.61
2019-02-24T04:11:59.349Z,84.29
2019-02-24T04:12:59.333Z,84.29
2019-02-24T04:13:59.348Z,84.85
2019-02-24T04:14:59.349Z,84.96
2019-02-24T04:15:59.356Z,84.85
2019-02-24T04:16:59.347Z,84.64
2019-02-24T04:17:59.335Z,85.48
2019-02-24T04:18:59.334Z,85.48
2019-02-24T04:19:59.332Z,85.48
2019-02-24T04:20:59.332Z,85.38
2019-02-24T04:21:59.357Z,85.48
2019-02-24T04:22:59.341Z,85.48
2019-02-24T04:23:59.345Z,85.69
2019-02-24T04:24:59.340Z,85.52
2019-02-24T04:25:59.332Z,85.63
2019-02-24T04:26:59.348Z,85.69
2019-02-24T04:27:59.346Z,85.59
2019-02-24T04:28:59.332Z,85.73
2019-02-24T04:29:59.333Z,85.80
2019-02-24T04:30:59.332Z,86.05
2019-02-24T04:31:59.331Z,86.32
2019-02-24T04:32:59.345Z,86.32
2019-02-24T04:33:59.364Z,86.32
2019-02-24T04:34:59.334Z,86.22
2019-02-24T04:35:59.333Z,85.94
2019-02-24T04:36:59.331Z,86.05
2019-02-24T04:37:57.585Z,86.25
2019-02-24T04:38:59.334Z,86.57
2019-02-24T04:39:59.345Z,87.30
2019-02-24T04:40:59.339Z,87.09
2019-02-24T04:41:59.330Z,87.30
2019-02-24T04:42:59.343Z,87.62
2019-02-24T04:43:59.329Z,87.51
2019-02-24T04:44:59.334Z,87.30
2019-02-24T04:45:59.363Z,87.72
2019-02-24T04:46:59.330Z,87.09
2019-02-24T04:47:59.346Z,87.30
2019-02-24T04:48:59.331Z,87.76
2019-02-24T04:49:59.331Z,87.34
2019-02-24T04:50:59.332Z,87.76
2019-02-24T04:51:59.344Z,87.30
2019-02-24T04:52:59.341Z,87.76
2019-02-24T04:53:59.327Z,88.18
2019-02-24T04:54:59.329Z,87.76
2019-02-24T04:55:59.328Z,87.30
2019-02-24T04:56:59.369Z,87.51
2019-02-24T04:57:59.386Z,87.34
2019-02-24T04:58:59.335Z,87.30
2019-02-24T04:59:58.839Z,87.09
2019-02-24T05:00:58.839Z,86.32
2019-02-24T05:01:58.839Z,85.06
2019-02-24T05:02:58.855Z,83.35
2019-02-24T05:03:58.837Z,82.79
2019-02-24T05:04:58.830Z,82.02
2019-02-24T05:05:58.839Z,81.92
2019-02-24T05:06:58.837Z,81.70
2019-02-24T05:07:58.845Z,81.92
2019-02-24T05:08:58.842Z,82.12
2019-02-24T05:09:58.844Z,81.60
2019-02-24T05:10:58.828Z,81.92
2019-02-24T05:11:58.825Z,81.60
2019-02-24T05:12:57.238Z,81.63
2019-02-24T05:13:58.828Z,81.74
2019-02-24T05:14:58.825Z,81.74
2019-02-24T05:15:58.851Z,81.85
2019-02-24T05:16:58.837Z,82.89
2019-02-24T05:17:58.828Z,82.89
2019-02-24T05:18:57.161Z,83.62
2019-02-24T05:19:58.826Z,83.73
2019-02-24T05:20:58.826Z,84.39
2019-02-24T05:21:58.867Z,84.19
2019-02-24T05:22:58.823Z,84.50
2019-02-24T05:23:58.845Z,84.08
2019-02-24T05:24:58.836Z,84.39
2019-02-24T05:25:58.828Z,84.19
2019-02-24T05:26:58.826Z,84.19
2019-02-24T05:27:58.845Z,84.50
2019-02-24T05:28:58.842Z,84.71
2019-02-24T05:29:59.825Z,84.92
2019-02-24T05:30:59.826Z,85.06
2019-02-24T05:31:58.835Z,85.38
2019-02-24T05:32:58.910Z,85.27
2019-02-24T05:33:59.849Z,84.75
2019-02-24T05:34:58.837Z,85.06
2019-02-24T05:35:58.824Z,85.00
2019-02-24T05:36:58.835Z,85.52
2019-02-24T05:37:58.837Z,85.42
2019-02-24T05:38:58.826Z,85.63
2019-02-24T05:39:58.843Z,85.83
2019-02-24T05:40:59.824Z,85.94
2019-02-24T05:41:58.829Z,86.46
2019-02-24T05:42:58.833Z,86.57
2019-02-24T05:43:58.823Z,86.25
2019-02-24T05:44:58.833Z,86.15
2019-02-24T05:45:58.844Z,86.36
2019-02-24T05:46:58.822Z,86.61
2019-02-24T05:47:58.335Z,86.78
2019-02-24T05:48:58.323Z,86.78
2019-02-24T05:49:58.323Z,86.78
2019-02-24T05:50:58.322Z,86.46
2019-02-24T05:51:58.340Z,86.36
2019-02-24T05:52:58.337Z,87.03
2019-02-24T05:53:56.773Z,87.76
2019-02-24T05:54:58.320Z,87.45
2019-02-24T05:55:58.322Z,88.18
2019-02-24T05:56:58.323Z,88.18
2019-02-24T05:57:58.367Z,89.02
2019-02-24T05:58:58.321Z,88.81
2019-02-24T05:59:56.712Z,89.65
2019-02-24T06:00:58.322Z,88.71
2019-02-24T06:01:58.321Z,88.85
2019-02-24T06:02:58.333Z,89.75
2019-02-24T06:03:58.335Z,89.23
2019-02-24T06:04:58.333Z,89.54
2019-02-24T06:05:58.322Z,89.12
2019-02-24T06:06:58.318Z,89.06
2019-02-24T06:07:58.337Z,88.64
2019-02-24T06:08:58.324Z,88.71
2019-02-24T06:09:58.334Z,87.45
2019-02-24T06:10:58.318Z,87.30
2019-02-24T06:11:58.329Z,87.62
2019-02-24T06:12:57.633Z,86.15
2019-02-24T06:13:58.318Z,84.96
2019-02-24T06:14:58.320Z,81.67
2019-02-24T06:15:58.334Z,78.67
2019-02-24T06:16:58.318Z,76.57
2019-02-24T06:17:58.317Z,75.15
2019-02-24T06:18:58.338Z,74.18
2019-02-24T06:19:58.318Z,73.30
2019-02-24T06:20:58.318Z,72.75
2019-02-24T06:21:58.368Z,72.44
2019-02-24T06:22:58.339Z,71.91
2019-02-24T06:23:59.322Z,71.08
2019-02-24T06:24:58.332Z,70.63
2019-02-24T06:25:59.345Z,70.11
2019-02-24T06:26:58.379Z,68.85
2019-02-24T06:27:58.373Z,68.62
2019-02-24T06:28:56.413Z,68.96
2019-02-24T06:30:04.881Z,68.62
2019-02-24T06:31:00.332Z,68.51
2019-02-24T06:31:58.318Z,67.05
2019-02-24T06:32:58.328Z,66.29
2019-02-24T06:33:57.375Z,65.98
2019-02-24T06:34:58.407Z,65.35
2019-02-24T06:35:58.315Z,65.04
2019-02-24T06:36:58.318Z,65.84
2019-02-24T06:37:57.837Z,65.33
2019-02-24T06:38:58.842Z,65.95
2019-02-24T06:39:58.841Z,66.26
2019-02-24T06:40:59.821Z,65.64
2019-02-24T06:41:57.816Z,65.33
2019-02-24T06:42:57.814Z,65.46
2019-02-24T06:43:57.816Z,65.01
2019-02-24T06:44:57.829Z,65.22
2019-02-24T06:45:57.826Z,64.70
2019-02-24T06:46:58.308Z,65.11
2019-02-24T06:47:57.817Z,65.33
2019-02-24T06:48:57.814Z,65.74
2019-02-24T06:49:57.817Z,66.16
2019-02-24T06:50:57.869Z,66.47
2019-02-24T06:51:57.814Z,66.39
2019-02-24T06:52:57.854Z,66.16
2019-02-24T06:53:57.816Z,66.29
2019-02-24T06:54:58.829Z,66.60
2019-02-24T06:55:57.898Z,66.16
2019-02-24T06:56:57.827Z,66.29
2019-02-24T06:57:57.825Z,65.84
2019-02-24T06:58:57.826Z,66.05
2019-02-24T06:59:57.818Z,65.84
2019-02-24T07:00:57.921Z,65.88
2019-02-24T07:01:57.835Z,64.80
2019-02-24T07:02:57.832Z,65.11
2019-02-24T07:03:56.826Z,63.97
2019-02-24T07:04:57.827Z,64.28
2019-02-24T07:05:57.825Z,64.46
2019-02-24T07:06:57.813Z,63.94
2019-02-24T07:07:57.812Z,63.63
2019-02-24T07:08:57.827Z,64.01
2019-02-24T07:09:57.814Z,63.91
2019-02-24T07:10:57.827Z,62.35
2019-02-24T07:11:57.834Z,63.18
2019-02-24T07:12:58.835Z,63.70
2019-02-24T07:13:57.885Z,63.39
2019-02-24T07:14:58.830Z,62.98
2019-02-24T07:15:57.826Z,62.66
2019-02-24T07:16:57.814Z,62.53
2019-02-24T07:17:56.903Z,61.07
2019-02-24T07:18:57.811Z,61.15
2019-02-24T07:19:57.811Z,60.35
2019-02-24T07:20:57.834Z,60.63
2019-02-24T07:21:57.813Z,61.15
2019-02-24T07:22:57.827Z,60.19
2019-02-24T07:23:57.811Z,58.73
2019-02-24T07:24:57.833Z,58.31
2019-02-24T07:25:57.390Z,58.42
2019-02-24T07:26:57.337Z,58.50
2019-02-24T07:27:58.321Z,58.60
2019-02-24T07:28:57.313Z,58.39
2019-02-24T07:29:57.313Z,58.70
2019-02-24T07:30:57.324Z,58.47
2019-02-24T07:31:57.326Z,59.71
2019-02-24T07:32:57.347Z,60.57
2019-02-24T07:33:57.311Z,60.16
2019-02-24T07:34:57.320Z,60.47
2019-02-24T07:35:57.329Z,63.48
2019-02-24T07:36:57.310Z,64.73
2019-02-24T07:37:57.310Z,67.02
2019-02-24T07:38:55.705Z,68.08
2019-02-24T07:39:57.313Z,66.63
2019-02-24T07:40:57.326Z,67.39
2019-02-24T07:41:56.651Z,65.31
2019-02-24T07:42:57.312Z,61.95
2019-02-24T07:43:57.312Z,60.81
2019-02-24T07:44:57.336Z,58.60
2019-02-24T07:45:57.309Z,58.26
2019-02-24T07:46:57.325Z,58.29
2019-02-24T07:47:57.311Z,58.47
2019-02-24T07:48:57.311Z,58.34
2019-02-24T07:49:57.323Z,58.44
2019-02-24T07:50:57.347Z,58.44
2019-02-24T07:51:57.332Z,58.73
2019-02-24T07:52:57.310Z,58.94
2019-02-24T07:53:57.309Z,58.96
2019-02-24T07:54:57.309Z,58.03
2019-02-24T07:55:57.332Z,59.14
2019-02-24T07:56:57.311Z,59.35
2019-02-24T07:57:57.320Z,60.60
2019-02-24T07:58:57.308Z,60.08
2019-02-24T07:59:57.311Z,60.18
2019-02-24T08:00:57.325Z,59.25
2019-02-24T08:01:55.446Z,58.52
2019-02-24T08:02:57.308Z,57.69
2019-02-24T08:03:57.326Z,57.24
2019-02-24T08:04:57.333Z,57.14
2019-02-24T08:05:57.331Z,56.41
2019-02-24T08:06:57.308Z,56.52
2019-02-24T08:07:57.337Z,55.87
2019-02-24T08:08:57.319Z,56.39
2019-02-24T08:09:57.307Z,56.29
2019-02-24T08:10:57.324Z,56.18
2019-02-24T08:11:57.320Z,57.12
2019-02-24T08:12:57.309Z,57.09
2019-02-24T08:13:56.820Z,55.22
2019-02-24T08:14:56.814Z,55.02
2019-02-24T08:15:56.843Z,54.60
2019-02-24T08:16:56.831Z,55.43
2019-02-24T08:17:56.819Z,52.20
2019-02-24T08:18:56.825Z,53.12
2019-02-24T08:19:56.809Z,53.10
2019-02-24T08:20:56.833Z,52.38
2019-02-24T08:21:56.823Z,52.48
2019-02-24T08:22:56.809Z,52.38
2019-02-24T08:23:56.831Z,53.00
2019-02-24T08:24:56.822Z,52.56
2019-02-24T08:25:56.820Z,52.56
2019-02-24T08:26:56.810Z,52.77
2019-02-24T08:27:56.825Z,52.46
2019-02-24T08:28:56.825Z,52.15
2019-02-24T08:29:56.811Z,51.94
2019-02-24T08:30:56.816Z,52.36
2019-02-24T08:31:57.831Z,51.94
2019-02-24T08:32:56.808Z,52.15
2019-02-24T08:33:56.827Z,51.01
2019-02-24T08:34:56.830Z,50.60
2019-02-24T08:35:56.824Z,50.49
2019-02-24T08:36:56.816Z,49.46
2019-02-24T08:37:56.820Z,49.35
2019-02-24T08:38:56.812Z,49.74
2019-02-24T08:39:56.838Z,49.13
2019-02-24T08:40:56.826Z,49.54
2019-02-24T08:41:56.850Z,49.85
2019-02-24T08:42:55.020Z,50.34
2019-02-24T08:43:56.813Z,49.43
2019-02-24T08:44:56.807Z,49.52
2019-02-24T08:45:56.846Z,49.10
2019-02-24T08:46:56.820Z,50.24
2019-02-24T08:47:56.808Z,49.18
2019-02-24T08:48:57.813Z,49.39
2019-02-24T08:49:56.806Z,50.42
2019-02-24T08:50:56.824Z,49.93
2019-02-24T08:51:56.845Z,50.11
2019-02-24T08:52:57.833Z,49.39
2019-02-24T08:53:56.835Z,49.29
2019-02-24T08:54:56.838Z,49.39
2019-02-24T08:55:56.835Z,49.29
2019-02-24T08:56:56.809Z,49.47
2019-02-24T08:57:56.835Z,47.61
2019-02-24T08:58:56.812Z,47.81
2019-02-24T08:59:55.863Z,46.89
2019-02-24T09:00:56.817Z,46.47
2019-02-24T09:01:56.327Z,45.83
2019-02-24T09:02:56.307Z,46.25
2019-02-24T09:03:56.338Z,48.10
2019-02-24T09:04:56.305Z,48.62
2019-02-24T09:05:54.777Z,47.38
2019-02-24T09:06:56.305Z,48.00
2019-02-24T09:07:56.323Z,47.77
2019-02-24T09:08:56.342Z,47.69
2019-02-24T09:09:56.321Z,46.23
2019-02-24T09:10:56.304Z,46.84
2019-02-24T09:11:54.725Z,46.43
2019-02-24T09:12:56.328Z,46.84
2019-02-24T09:13:56.311Z,47.16
2019-02-24T09:14:56.317Z,46.20
2019-02-24T09:15:56.308Z,50.23
2019-02-24T09:16:56.310Z,52.91
2019-02-24T09:17:54.675Z,52.39
2019-02-24T09:18:56.323Z,50.33
2019-02-24T09:19:56.317Z,48.27
2019-02-24T09:20:56.314Z,47.96
2019-02-24T09:21:56.327Z,47.26
2019-02-24T09:22:56.337Z,48.16
2019-02-24T09:23:56.318Z,48.06
2019-02-24T09:24:56.312Z,48.14
2019-02-24T09:25:56.309Z,47.63
2019-02-24T09:26:56.309Z,46.39
2019-02-24T09:27:56.327Z,46.59
2019-02-24T09:28:56.313Z,45.89
2019-02-24T09:29:56.304Z,44.95
2019-02-24T09:31:00.906Z,44.64
2019-02-24T09:31:56.308Z,45.56
2019-02-24T09:32:56.318Z,45.46
2019-02-24T09:33:56.329Z,46.08
2019-02-24T09:34:56.304Z,45.56
2019-02-24T09:35:56.306Z,44.10
2019-02-24T09:36:56.316Z,45.44
2019-02-24T09:37:56.306Z,46.67
2019-02-24T09:38:56.340Z,46.37
2019-02-24T09:39:56.305Z,47.09
2019-02-24T09:40:56.312Z,46.26
2019-02-24T09:41:56.303Z,45.83
2019-02-24T09:42:56.306Z,45.21
2019-02-24T09:43:56.335Z,44.59
2019-02-24T09:44:56.325Z,44.49
2019-02-24T09:45:56.311Z,44.08
2019-02-24T09:46:56.327Z,43.13
2019-02-24T09:47:56.321Z,43.54
2019-02-24T09:48:56.315Z,42.82
2019-02-24T09:49:55.813Z,42.72
2019-02-24T09:50:55.804Z,41.89
2019-02-24T09:51:55.822Z,42.31
2019-02-24T09:52:55.808Z,43.21
2019-02-24T09:53:55.824Z,44.65
2019-02-24T09:54:55.804Z,44.35
2019-02-24T09:55:55.809Z,43.84
2019-02-24T09:56:55.822Z,43.73
2019-02-24T09:57:55.805Z,43.84
2019-02-24T09:58:55.817Z,43.84
2019-02-24T09:59:55.809Z,43.73
2019-02-24T10:00:55.821Z,42.99
2019-02-24T10:01:55.808Z,43.51
2019-02-24T10:02:57.502Z,43.30
2019-02-24T10:03:55.815Z,42.99
2019-02-24T10:04:55.821Z,42.99
2019-02-24T10:05:55.815Z,42.66
2019-02-24T10:06:55.824Z,41.74
2019-02-24T10:07:55.813Z,41.02
2019-02-24T10:08:55.816Z,41.51
2019-02-24T10:09:55.825Z,40.17
2019-02-24T10:10:55.814Z,40.17
2019-02-24T10:11:55.099Z,39.66
2019-02-24T10:12:55.815Z,40.48
2019-02-24T10:13:55.806Z,39.46
2019-02-24T10:14:55.817Z,38.94
2019-02-24T10:15:55.807Z,38.53
2019-02-24T10:16:55.806Z,38.74
2019-02-24T10:17:55.807Z,38.74
2019-02-24T10:18:55.803Z,39.04
2019-02-24T10:19:55.982Z,36.99
2019-02-24T10:20:55.806Z,38.51
2019-02-24T10:21:55.803Z,38.21
2019-02-24T10:22:55.171Z,37.38
2019-02-24T10:23:55.803Z,38.21
2019-02-24T10:24:56.812Z,38.19
2019-02-24T10:25:55.810Z,36.96
2019-02-24T10:26:55.810Z,39.22
2019-02-24T10:27:55.816Z,39.32
2019-02-24T10:28:53.895Z,37.26
2019-02-24T10:29:55.856Z,37.16
2019-02-24T10:31:03.360Z,36.94
2019-02-24T10:31:55.841Z,36.32
2019-02-24T10:32:55.843Z,37.45
2019-02-24T10:33:55.367Z,38.15
2019-02-24T10:34:55.341Z,38.15
2019-02-24T10:35:55.376Z,36.30
2019-02-24T10:36:55.363Z,33.23
2019-02-24T10:37:55.342Z,33.03
2019-02-24T10:38:55.346Z,33.22
2019-02-24T10:39:55.350Z,33.62
2019-02-24T10:40:55.351Z,33.11
2019-02-24T10:41:55.368Z,33.93
2019-02-24T10:42:55.338Z,33.62
2019-02-24T10:43:55.345Z,34.03
2019-02-24T10:44:55.400Z,34.65
2019-02-24T10:45:55.388Z,32.58
2019-02-24T10:46:55.355Z,33.00
2019-02-24T10:47:55.355Z,29.20
2019-02-24T10:49:03.078Z,29.41
2019-02-24T10:49:56.341Z,29.80
2019-02-24T10:50:55.349Z,30.11
2019-02-24T10:51:56.394Z,32.67
2019-02-24T10:52:53.642Z,31.75
2019-02-24T10:54:45.920Z,31.95
2019-02-24T10:55:47.793Z,31.65
2019-02-24T10:56:47.726Z,31.75
2019-02-24T10:57:45.904Z,31.95
2019-02-24T10:58:47.746Z,32.45
2019-02-24T10:59:47.718Z,32.76
2019-02-24T11:00:47.786Z,33.39
2019-02-24T11:01:47.718Z,33.70
2019-02-24T11:02:47.732Z,34.31
2019-02-24T11:03:47.726Z,35.54
2019-02-24T11:04:49.030Z,33.37
2019-02-24T11:05:47.770Z,30.10
2019-02-24T11:06:48.723Z,29.07
2019-02-24T11:07:48.736Z,28.97
2019-02-24T11:08:48.765Z,28.03
2019-02-24T11:09:47.728Z,28.55
2019-02-24T11:10:47.754Z,29.46
2019-02-24T11:11:46.761Z,30.69
2019-02-24T11:12:47.752Z,30.68
2019-02-24T11:13:47.243Z,28.55
2019-02-24T11:14:47.231Z,29.76
2019-02-24T11:15:47.326Z,28.34
2019-02-24T11:16:47.229Z,29.35
2019-02-24T11:18:37.982Z,28.12
2019-02-24T11:19:39.817Z,27.50
2019-02-24T11:20:39.778Z,27.91
2019-02-24T11:21:39.782Z,29.13
2019-02-24T11:22:39.014Z,30.45
2019-02-24T11:23:40.789Z,29.43
2019-02-24T11:24:39.770Z,30.64
2019-02-24T11:25:40.783Z,31.15
2019-02-24T11:26:39.821Z,30.02
2019-02-24T11:27:37.962Z,30.23
2019-02-24T11:28:39.799Z,27.78
2019-02-24T11:29:39.850Z,27.15
2019-02-24T11:30:39.769Z,26.23
2019-02-24T11:31:39.783Z,28.27
2019-02-24T11:32:39.781Z,28.34
2019-02-24T11:33:37.877Z,27.50
2019-02-24T11:34:39.849Z,27.13
2019-02-24T11:35:38.849Z,24.85
2019-02-24T11:36:38.785Z,24.91
2019-02-24T11:37:39.283Z,24.37
2019-02-24T11:38:40.277Z,22.02
2019-02-24T11:39:40.347Z,23.10
2019-02-24T11:40:39.283Z,24.10
2019-02-24T11:41:40.387Z,22.97
2019-02-24T11:42:39.329Z,22.63
2019-02-24T11:43:39.315Z,21.51
2019-02-24T11:44:39.283Z,20.89
2019-02-24T11:45:39.280Z,19.98
2019-02-24T11:46:39.279Z,20.78
2019-02-24T11:47:39.292Z,19.09
2019-02-24T11:48:39.286Z,17.40
2019-02-24T11:49:40.272Z,19.01
2019-02-24T11:50:39.277Z,19.92
2019-02-24T11:51:39.267Z,19.43
2019-02-24T11:52:39.354Z,20.45
2019-02-24T11:53:39.276Z,20.37
2019-02-24T11:54:39.277Z,22.60
2019-02-24T11:55:39.347Z,22.59
2019-02-24T11:56:40.289Z,22.39
2019-02-24T11:57:39.358Z,22.72
2019-02-24T11:58:40.346Z,21.01
2019-02-24T11:59:39.274Z,21.22
2019-02-24T12:00:39.330Z,21.30
2019-02-24T12:01:47.304Z,22.19
2019-02-24T12:02:41.890Z,25.31
2019-02-24T12:03:40.289Z,24.48
2019-02-24T12:04:39.354Z,22.63
2019-02-24T12:05:39.274Z,20.90
2019-02-24T12:06:39.286Z,21.00
2019-02-24T12:07:39.285Z,21.20
2019-02-24T12:08:37.459Z,21.00
2019-02-24T12:09:39.278Z,20.68
2019-02-24T12:10:39.295Z,20.98
2019-02-24T12:11:39.274Z,19.06
2019-02-24T12:12:39.272Z,19.06
2019-02-24T12:13:39.373Z,19.56
2019-02-24T12:14:39.281Z,19.55
2019-02-24T12:15:39.276Z,20.14
2019-02-24T12:16:39.276Z,21.03
2019-02-24T12:17:39.298Z,21.34
2019-02-24T12:18:39.293Z,19.23
2019-02-24T12:19:39.304Z,19.45
2019-02-24T12:20:39.300Z,18.48
2019-02-24T12:21:39.273Z,18.99
2019-02-24T12:22:39.284Z,22.50
2019-02-24T12:23:39.292Z,23.21
2019-02-24T12:24:39.272Z,23.28
2019-02-24T12:25:38.220Z,22.26
2019-02-24T12:26:38.781Z,19.92
2019-02-24T12:27:38.780Z,19.81
2019-02-24T12:28:38.785Z,18.62
2019-02-24T12:29:38.796Z,16.53
2019-02-24T12:30:38.777Z,17.35
2019-02-24T12:31:38.776Z,18.07
2019-02-24T12:32:38.774Z,18.87
2019-02-24T12:33:38.798Z,19.15
2019-02-24T12:34:38.773Z,19.03
2019-02-24T12:35:38.773Z,18.60
2019-02-24T12:36:38.793Z,19.08
2019-02-24T12:37:38.785Z,16.67
2019-02-24T12:38:38.788Z,15.59
2019-02-24T12:39:38.777Z,16.21
2019-02-24T12:40:38.794Z,17.03
2019-02-24T12:41:38.882Z,17.54
2019-02-24T12:42:38.781Z,17.66
2019-02-24T12:43:38.809Z,17.66
2019-02-24T12:44:38.796Z,16.95
2019-02-24T12:45:38.776Z,18.26
2019-02-24T12:46:38.836Z,16.46
2019-02-24T12:47:38.793Z,15.66
2019-02-24T12:48:38.794Z,15.66
2019-02-24T12:49:38.822Z,16.86
2019-02-24T12:50:38.781Z,16.26
2019-02-24T12:51:38.783Z,17.66
2019-02-24T12:52:38.776Z,16.06
2019-02-24T12:53:38.795Z,15.45